Time;durP1;ratioP1;P1;durP2;ratioP2;P2;SDS_P1;SDS_P2;PMS_P1;PMS_P2;Temp;Humidity;BMP_temperature;BMP_pressure;BME280_temperature;BME280_humidity;BME280_pressure;Samples;Min_cycle;Max_cycle;Signal;HPM_P1;HPM_P2
2021/08/24 00:01:52;;;;;;;14.25;8.98;;;;;;;16.54;100.00;99634.27;1749134;80;20908;-68
2021/08/24 00:04:20;;;;;;;12.95;8.43;;;;;;;16.51;100.00;99635.63;1738770;82;20913;-68
2021/08/24 00:06:48;;;;;;;14.87;9.55;;;;;;;16.50;100.00;99636.73;1748514;80;21015;-68
2021/08/24 00:09:15;;;;;;;16.02;9.38;;;;;;;16.48;100.00;99637.02;1748769;82;20826;-68
2021/08/24 00:11:42;;;;;;;12.07;8.90;;;;;;;16.46;100.00;99631.62;1715242;82;20967;-68
2021/08/24 00:14:09;;;;;;;17.60;8.65;;;;;;;16.45;100.00;99639.51;1716228;82;20862;-68
2021/08/24 00:16:36;;;;;;;16.17;8.48;;;;;;;16.45;100.00;99639.51;1717752;82;20849;-68
2021/08/24 00:19:03;;;;;;;16.60;8.80;;;;;;;16.43;100.00;99638.98;1749206;82;21118;-68
2021/08/24 00:21:31;;;;;;;11.95;8.55;;;;;;;16.43;100.00;99641.14;1715448;82;48572;-68
2021/08/24 00:23:58;;;;;;;12.03;7.97;;;;;;;16.42;100.00;99636.03;1693881;82;20956;-68
2021/08/24 00:26:24;;;;;;;12.65;8.58;;;;;;;16.43;100.00;99632.22;1692277;82;20909;-68
2021/08/24 00:28:51;;;;;;;9.93;7.78;;;;;;;16.41;100.00;99625.75;1749109;82;20853;-68
2021/08/24 00:31:18;;;;;;;11.45;8.08;;;;;;;16.41;100.00;99624.92;1715995;82;21172;-68
2021/08/24 00:33:45;;;;;;;16.90;8.28;;;;;;;16.40;100.00;99620.61;1717828;82;20845;-68
2021/08/24 00:36:15;;;;;;;12.23;7.87;;;;;;;16.38;100.00;99621.45;1748827;82;20992;-68
2021/08/24 00:38:42;;;;;;;9.95;7.72;;;;;;;16.38;100.00;99620.09;1748836;82;20876;-68
2021/08/24 00:41:09;;;;;;;13.00;8.28;;;;;;;16.37;100.00;99616.59;1738741;82;20925;-68
2021/08/24 00:43:39;;;;;;;11.57;7.83;;;;;;;16.36;100.00;99620.92;1738832;82;21182;-68
2021/08/24 00:46:40;;;;;;;17.80;8.58;;;;;;;16.35;100.00;99616.06;1738959;82;20945;-67
2021/08/24 00:49:18;;;;;;;10.30;7.87;;;;;;;16.35;100.00;99620.69;1739161;81;21722;-68
2021/08/24 00:51:49;;;;;;;13.20;8.53;;;;;;;16.33;100.00;99618.25;1738757;82;21314;-68
2021/08/24 00:54:21;;;;;;;13.35;7.97;;;;;;;16.29;100.00;99611.27;1748858;82;20888;-68
2021/08/24 00:56:53;;;;;;;12.18;8.00;;;;;;;16.27;100.00;99608.59;1727987;82;21286;-69
2021/08/24 00:59:20;;;;;;;12.13;8.13;;;;;;;16.25;100.00;99609.42;1747453;80;20901;-68
2021/08/24 01:01:48;;;;;;;12.45;8.75;;;;;;;16.23;100.00;99602.94;1735309;82;20873;-68
2021/08/24 01:04:15;;;;;;;11.53;8.20;;;;;;;16.23;100.00;99603.48;1747913;82;20897;-68
2021/08/24 01:07:25;;;;;;;9.10;7.15;;;;;;;16.22;100.00;99604.05;1735368;82;21132;-68
2021/08/24 01:10:00;;;;;;;11.78;7.60;;;;;;;16.21;100.00;99602.97;1760203;81;21123;-68
2021/08/24 01:13:01;;;;;;;10.75;7.20;;;;;;;16.20;100.00;99605.43;1747593;81;20850;-68
2021/08/24 01:15:48;;;;;;;10.75;7.30;;;;;;;16.20;100.00;99604.08;1747493;82;20881;-68
2021/08/24 01:18:41;;;;;;;11.57;7.60;;;;;;;16.17;100.00;99597.34;1747484;81;20908;-68
2021/08/24 01:21:39;;;;;;;10.10;7.37;;;;;;;16.13;100.00;99593.59;1746604;81;21443;-68
2021/08/24 01:24:33;;;;;;;8.60;6.17;;;;;;;16.11;100.00;99594.97;1747723;81;21103;-68
2021/08/24 01:27:23;;;;;;;10.60;6.97;;;;;;;16.11;100.00;99584.94;1711206;83;20956;-67
2021/08/24 01:30:25;;;;;;;15.53;7.85;;;;;;;16.11;100.00;99588.20;1711551;83;20956;-67
2021/08/24 01:33:16;;;;;;;11.80;7.08;;;;;;;16.10;100.00;99582.55;1674418;85;20933;-67
2021/08/24 01:36:21;;;;;;;12.37;7.95;;;;;;;16.05;100.00;99582.86;1711191;83;20947;-67
2021/08/24 01:39:08;;;;;;;16.67;8.00;;;;;;;16.03;100.00;99585.59;1711307;83;21139;-66
2021/08/24 01:41:54;;;;;;;;;;;;;;;16.01;100.00;99584.52;1691191;83;20818;-66
2021/08/24 01:44:24;;;;;;;9.30;7.50;;;;;;;15.98;100.00;99587.01;1680528;83;20134;-68
2021/08/24 01:47:06;;;;;;;8.93;7.08;;;;;;;15.94;100.00;99578.64;1711403;83;20980;-68
2021/08/24 01:49:49;;;;;;;12.18;6.92;;;;;;;15.92;100.00;99579.47;1711490;83;20869;-67
2021/08/24 01:52:19;;;;;;;13.50;7.90;;;;;;;15.89;100.00;99579.26;1711703;83;21413;-68
2021/08/24 01:54:57;;;;;;;11.30;7.87;;;;;;;15.86;100.00;99573.87;1711227;83;20909;-68
2021/08/24 01:57:31;;;;;;;10.10;7.37;;;;;;;15.84;100.00;99574.70;1709470;83;21036;-67
2021/08/24 02:00:02;;;;;;;12.18;7.58;;;;;;;15.82;100.00;99575.53;1685933;84;21039;-68
2021/08/24 02:02:39;;;;;;;12.35;8.28;;;;;;;15.80;100.00;99572.30;1655514;86;21005;-68
2021/08/24 02:05:13;;;;;;;14.47;8.30;;;;;;;15.81;100.00;99574.73;1731250;82;21084;-67
2021/08/24 02:07:41;;;;;;;11.60;7.92;;;;;;;15.81;100.00;99564.46;1751910;80;20937;-68
2021/08/24 02:10:13;;;;;;;11.57;7.87;;;;;;;15.79;100.00;99566.09;1752421;80;20815;-67
2021/08/24 02:12:40;;;;;;;9.53;7.20;;;;;;;15.77;100.00;99556.65;1775951;80;21359;-67
2021/08/24 02:15:11;;;;;;;12.55;8.05;;;;;;;15.76;100.00;99556.41;1775872;80;20920;-67
2021/08/24 02:17:39;;;;;;;10.85;8.28;;;;;;;15.73;100.00;99557.78;1775858;80;21100;-67
2021/08/24 02:20:15;;;;;;;18.87;7.70;;;;;;;15.70;100.00;99552.92;1775782;80;21312;-67
2021/08/24 02:22:43;;;;;;;19.45;7.62;;;;;;;15.67;100.00;99549.97;1740023;81;20966;-67
2021/08/24 02:25:15;;;;;;;12.78;8.30;;;;;;;15.64;100.00;99549.45;1701021;83;20866;-67
2021/08/24 02:28:02;;;;;;;11.40;7.35;;;;;;;15.62;100.00;99553.53;1681024;83;20875;-68
2021/08/24 02:30:30;;;;;;;12.15;7.85;;;;;;;15.57;100.00;99543.57;1701085;82;21013;-67
2021/08/24 02:32:57;;;;;;;11.20;8.10;;;;;;;15.55;100.00;99551.72;1715507;83;20919;-67
2021/08/24 02:35:47;;;;;;;11.95;7.12;;;;;;;15.52;100.00;99553.65;1692832;83;20859;-67
2021/08/24 02:38:18;;;;;;;12.13;8.08;;;;;;;15.49;100.00;99547.47;1691638;83;20919;-68
2021/08/24 02:40:53;;;;;;;9.73;7.55;;;;;;;15.45;100.00;99540.45;1692965;83;20883;-67
2021/08/24 02:43:32;;;;;;;12.58;8.15;;;;;;;15.43;100.00;99543.98;1715510;83;21425;-67
2021/08/24 02:46:22;;;;;;;8.90;7.40;;;;;;;15.41;100.00;99544.84;1715224;83;20903;-67
2021/08/24 02:48:58;;;;;;;15.58;8.25;;;;;;;15.40;100.00;99539.16;1692651;83;20933;-68
2021/08/24 02:51:26;;;;;;;10.30;8.00;;;;;;;15.39;100.00;99541.61;1715423;83;20851;-67
2021/08/24 02:54:11;;;;;;;13.22;7.80;;;;;;;15.39;100.00;99545.67;1693461;83;20883;-67
2021/08/24 02:56:37;;;;;;;12.63;8.18;;;;;;;15.38;100.00;99545.39;1715716;83;21732;-67
2021/08/24 02:59:04;;;;;;;12.60;8.05;;;;;;;15.37;100.00;99541.09;1719355;83;20832;-67
2021/08/24 03:01:31;;;;;;;13.55;8.75;;;;;;;15.36;100.00;99544.86;1715968;83;20891;-68
2021/08/24 03:03:58;;;;;;;12.65;8.60;;;;;;;15.34;100.00;99550.58;1715701;83;20883;-68
2021/08/24 03:06:25;;;;;;;12.60;8.55;;;;;;;15.34;100.00;99544.37;1695383;83;21331;-67
2021/08/24 03:08:52;;;;;;;14.03;9.53;;;;;;;15.33;100.00;99538.68;1715857;83;21078;-68
2021/08/24 03:11:22;;;;;;;14.07;8.90;;;;;;;15.32;100.00;99543.29;1714684;83;20898;-67
2021/08/24 03:14:08;;;;;;;13.70;9.35;;;;;;;15.34;100.00;99547.88;1715838;83;21456;-68
2021/08/24 03:16:46;;;;;;;19.02;9.93;;;;;;;15.36;100.00;99540.28;1715914;83;20998;-68
2021/08/24 03:19:17;;;;;;;16.48;9.78;;;;;;;15.39;100.00;99542.97;1715945;83;20883;-68
2021/08/24 03:21:47;;;;;;;14.38;9.55;;;;;;;15.40;100.00;99548.07;1715563;83;20880;-68
2021/08/24 03:24:14;;;;;;;15.13;10.20;;;;;;;15.41;100.00;99544.29;1698863;83;20871;-68
2021/08/24 03:26:42;;;;;;;18.32;10.40;;;;;;;15.43;100.00;99537.22;1741661;82;21322;-68
2021/08/24 03:29:13;;;;;;;17.23;9.60;;;;;;;15.47;100.00;99527.45;1671885;84;21351;-68
2021/08/24 03:31:41;;;;;;;18.05;10.20;;;;;;;15.49;100.00;99526.63;1715612;83;21000;-68
2021/08/24 03:34:08;;;;;;;17.73;9.35;;;;;;;15.50;100.00;99527.42;1695998;83;21405;-68
2021/08/24 03:36:35;;;;;;;15.70;10.30;;;;;;;15.51;100.00;99535.81;1716873;83;20893;-68
2021/08/24 03:39:02;;;;;;;20.15;9.63;;;;;;;15.53;100.00;99542.55;1716614;82;21414;-68
2021/08/24 03:41:29;;;;;;;14.30;9.13;;;;;;;15.55;100.00;99540.34;1716680;83;20897;-68
2021/08/24 03:43:59;;;;;;;16.63;10.30;;;;;;;15.58;100.00;99541.14;1716692;83;20900;-68
2021/08/24 03:46:26;;;;;;;19.05;9.65;;;;;;;15.62;100.00;99543.52;1716842;83;21126;-68
2021/08/24 03:48:54;;;;;;;15.88;9.43;;;;;;;15.64;100.00;99538.63;1696538;83;20872;-68
2021/08/24 03:51:21;;;;;;;13.03;9.03;;;;;;;15.66;100.00;99538.34;1696530;83;20980;-67
2021/08/24 03:53:49;;;;;;;;;;;;;;;15.66;100.00;99538.34;1719166;83;21661;-68
2021/08/24 03:56:15;;;;;;;13.03;9.25;;;;;;;15.70;100.00;99542.66;1718824;81;20512;-68
2021/08/24 03:58:42;;;;;;;15.30;9.30;;;;;;;15.71;100.00;99542.38;1754346;81;21123;-67
2021/08/24 04:01:16;;;;;;;19.57;10.25;;;;;;;15.75;100.00;99546.13;1786426;80;20967;-68
2021/08/24 04:03:42;;;;;;;20.25;10.98;;;;;;;15.79;100.00;99547.15;1786660;80;20936;-68
2021/08/24 04:06:09;;;;;;;17.32;11.40;;;;;;;15.83;100.00;99549.55;1738388;80;21419;-68
2021/08/24 04:08:37;;;;;;;18.42;11.40;;;;;;;15.86;100.00;99548.16;1786755;80;20921;-68
2021/08/24 04:11:06;;;;;;;18.15;9.48;;;;;;;15.88;100.00;99541.92;1786378;80;21066;-68
2021/08/24 04:13:32;;;;;;;;;;;;;;;15.94;100.00;99543.45;1767655;80;20869;-68
2021/08/24 04:16:11;;;;;;;15.75;9.70;;;;;;;16.00;100.00;99545.02;1791010;80;20092;-68
2021/08/24 04:18:38;;;;;;;15.03;9.58;;;;;;;16.05;100.00;99547.66;1786238;80;21350;-67
2021/08/24 04:21:12;;;;;;;19.27;11.50;;;;;;;16.11;100.00;99544.33;1787144;80;20825;-68
2021/08/24 04:23:41;;;;;;;19.73;10.60;;;;;;;16.14;100.00;99547.80;1786573;80;21120;-68
2021/08/24 04:26:08;;;;;;;16.25;9.73;;;;;;;16.19;100.00;99542.34;1786452;80;20999;-68
2021/08/24 04:28:35;;;;;;;18.20;10.63;;;;;;;16.22;100.00;99537.70;1764588;80;20860;-68
2021/08/24 04:31:04;;;;;;;19.10;10.00;;;;;;;16.28;100.00;99537.07;1786645;80;20908;-68
2021/08/24 04:33:32;;;;;;;14.35;9.68;;;;;;;16.34;100.00;99534.56;1786337;80;20936;-68
2021/08/24 04:35:59;;;;;;;15.08;9.83;;;;;;;16.39;100.00;99539.91;1786653;80;21125;-67
2021/08/24 04:38:27;;;;;;;14.58;10.05;;;;;;;16.47;100.00;99533.02;1786563;80;20845;-68
2021/08/24 04:40:54;;;;;;;16.85;9.65;;;;;;;16.53;100.00;99538.61;1786924;80;20881;-68
2021/08/24 04:43:21;;;;;;;28.00;13.03;;;;;;;16.55;100.00;99535.06;1786618;80;20955;-68
2021/08/24 04:45:49;;;;;;;47.88;25.35;;;;;;;16.64;100.00;99537.92;1786506;80;20944;-68
2021/08/24 04:48:16;;;;;;;73.05;37.75;;;;;;;16.70;100.00;99537.53;1786588;80;21125;-68
2021/08/24 04:50:43;;;;;;;50.83;26.90;;;;;;;16.77;100.00;99535.02;1765094;80;20853;-67
2021/08/24 04:53:12;;;;;;;43.92;23.10;;;;;;;16.80;100.00;99535.24;1786640;80;20877;-68
2021/08/24 04:55:39;;;;;;;51.05;26.95;;;;;;;16.82;100.00;99533.61;1786671;80;21083;-68
2021/08/24 04:58:07;;;;;;;;;;;;;;;16.88;100.00;99531.08;1762431;80;20857;-67
2021/08/24 05:00:34;;;;;;;65.62;32.70;;;;;;;17.00;100.00;99530.06;1681682;82;21930;-68
2021/08/24 05:03:01;;;;;;;66.75;31.50;;;;;;;17.22;100.00;99529.42;1738782;82;20882;-67
2021/08/24 05:05:28;;;;;;;114.17;54.83;;;;;;;17.40;100.00;99532.36;1719016;83;21287;-67
2021/08/24 05:07:54;;;;;;;36.23;21.10;;;;;;;17.65;100.00;99523.72;1645943;85;20927;-67
2021/08/24 05:10:22;;;;;;;66.17;35.50;;;;;;;17.71;100.00;99527.97;1668576;85;20970;-68
2021/08/24 05:12:49;;;;;;;41.25;22.37;;;;;;;17.68;100.00;99523.11;1749725;82;21190;-67
2021/08/24 05:15:17;;;;;;;25.55;15.28;;;;;;;17.78;100.00;99521.58;1752279;82;21457;-68
2021/08/24 05:17:49;;;;;;;18.55;11.00;;;;;;;17.87;100.00;99523.05;1752900;82;20813;-68
2021/08/24 05:20:17;;;;;;;16.45;10.43;;;;;;;17.82;100.00;99519.08;1752396;82;20892;-68
2021/08/24 05:22:44;;;;;;;18.20;10.72;;;;;;;17.78;100.00;99520.75;1752435;81;21402;-68
2021/08/24 05:25:13;;;;;;;19.02;10.43;;;;;;;17.74;100.00;99527.91;1752541;82;21128;-68
2021/08/24 05:27:40;;;;;;;20.25;10.95;;;;;;;17.78;100.00;99524.83;1752470;81;20964;-68
2021/08/24 05:30:10;;;;;;;23.15;11.63;;;;;;;17.83;100.00;99522.59;1752314;82;20835;-68
2021/08/24 05:32:37;;;;;;;18.30;10.43;;;;;;;17.80;100.00;99524.00;1738914;81;20863;-68
2021/08/24 05:35:06;;;;;;;18.62;11.48;;;;;;;17.82;100.00;99519.08;1719005;83;20864;-69
2021/08/24 05:37:33;;;;;;;22.22;11.12;;;;;;;17.91;100.00;99523.27;1689795;83;21120;-69
2021/08/24 05:40:00;;;;;;;19.42;11.68;;;;;;;17.88;100.00;99526.56;1668339;84;20943;-68
2021/08/24 05:42:27;;;;;;;21.80;11.33;;;;;;;17.91;100.00;99531.41;1718569;81;20834;-68
2021/08/24 05:44:53;;;;;;;20.62;11.35;;;;;;;18.02;100.00;99529.27;1749419;82;20845;-68
2021/08/24 05:47:21;;;;;;;24.97;11.40;;;;;;;18.10;100.00;99532.06;1752331;82;21026;-68
2021/08/24 05:49:47;;;;;;;20.43;12.50;;;;;;;18.12;100.00;99532.56;1738904;81;21903;-68
2021/08/24 05:52:14;;;;;;;22.00;12.13;;;;;;;18.15;100.00;99533.88;1695678;83;20860;-68
2021/08/24 05:54:41;;;;;;;19.32;12.35;;;;;;;18.18;100.00;99534.08;1749369;81;21424;-68
2021/08/24 05:57:07;;;;;;;18.02;11.97;;;;;;;18.29;100.00;99524.34;1747542;81;20881;-68
2021/08/24 05:59:35;;;;;;;21.50;12.40;;;;;;;18.40;100.00;99523.82;1741231;82;20895;-68
2021/08/24 06:02:03;;;;;;;17.73;12.47;;;;;;;18.49;100.00;99525.23;1741282;82;21134;-67
2021/08/24 06:04:30;;;;;;;19.32;12.45;;;;;;;18.72;100.00;99523.36;1741313;82;28061;-68
2021/08/24 06:06:56;;;;;;;22.58;12.55;;;;;;;18.80;100.00;99524.56;1733130;81;21381;-67
2021/08/24 06:09:23;;;;;;;26.25;12.58;;;;;;;18.95;100.00;99528.25;1726267;81;20966;-67
2021/08/24 06:11:51;;;;;;;24.50;12.50;;;;;;;19.22;100.00;99523.22;1712734;81;21488;-68
2021/08/24 06:14:19;;;;;;;24.27;12.93;;;;;;;19.62;100.00;99515.63;1720536;81;21112;-67
2021/08/24 06:16:47;;;;;;;25.12;11.65;;;;;;;20.01;100.00;99516.17;1694355;83;21003;-67
2021/08/24 06:19:13;;;;;;;16.55;11.45;;;;;;;20.38;100.00;99514.54;1731391;83;20969;-67
2021/08/24 06:21:40;;;;;;;16.52;11.73;;;;;;;20.85;95.69;99520.16;1741595;81;20968;-66
2021/08/24 06:24:07;;;;;;;16.27;11.18;;;;;;;21.11;91.46;99525.59;1754009;81;21545;-68
2021/08/24 06:26:34;;;;;;;27.47;12.00;;;;;;;21.43;89.17;99525.59;1729684;83;21074;-66
2021/08/24 06:29:01;;;;;;;23.12;12.43;;;;;;;21.53;87.16;99517.61;1773606;79;21053;-66
2021/08/24 06:31:28;;;;;;;18.15;13.03;;;;;;;21.72;86.73;99526.20;1773558;81;20961;-68
2021/08/24 06:33:55;;;;;;;21.60;13.55;;;;;;;22.04;83.99;99527.47;1767157;81;20877;-67
2021/08/24 06:36:23;;;;;;;19.25;13.08;;;;;;;22.18;85.01;99528.59;1773911;81;21020;-68
2021/08/24 06:38:50;;;;;;;17.37;10.50;;;;;;;22.72;81.61;99527.10;1774010;81;21124;-68
2021/08/24 06:41:17;;;;;;;18.85;11.38;;;;;;;23.28;76.94;99528.33;1774232;81;21285;-67
2021/08/24 06:43:44;;;;;;;13.07;9.80;;;;;;;23.45;75.82;99532.02;1774275;80;21336;-67
2021/08/24 06:46:12;;;;;;;14.40;8.98;;;;;;;23.62;73.51;99531.80;1773905;81;20893;-67
2021/08/24 06:48:39;;;;;;;17.42;10.00;;;;;;;23.38;72.03;99531.78;1775426;79;21041;-68
2021/08/24 06:51:05;;;;;;;13.45;9.83;;;;;;;23.47;70.00;99529.72;1762994;80;21133;-68
2021/08/24 06:53:32;;;;;;;15.03;9.18;;;;;;;23.55;70.78;99519.23;1797462;79;20990;-69
2021/08/24 06:55:59;;;;;;;22.20;9.85;;;;;;;23.37;68.59;99526.05;1765812;81;20995;-68
2021/08/24 06:58:25;;;;;;;13.30;9.10;;;;;;;23.44;68.92;99528.45;1702369;82;21059;-68
2021/08/24 07:00:52;;;;;;;13.68;9.03;;;;;;;23.68;68.33;99518.67;1725411;82;20979;-69
2021/08/24 07:03:19;;;;;;;20.77;10.43;;;;;;;23.81;66.37;99522.23;1711680;83;21062;-68
2021/08/24 07:05:49;;;;;;;13.80;9.73;;;;;;;24.18;65.14;99526.55;1736940;81;21342;-69
2021/08/24 07:08:17;;;;;;;14.73;9.45;;;;;;;24.58;63.27;99529.11;1729794;83;21445;-68
2021/08/24 07:10:45;;;;;;;;;;;;;;;24.57;61.46;99526.13;1732344;83;20841;-68
2021/08/24 07:13:11;;;;;;;17.65;10.63;;;;;;;24.51;61.20;99520.09;1728212;83;20117;-68
2021/08/24 07:15:40;;;;;;;13.30;9.68;;;;;;;24.69;59.71;99522.55;1779021;80;20960;-68
2021/08/24 07:18:08;;;;;;;;;;;;;;;24.41;60.24;99521.92;1746956;81;21355;-68
2021/08/24 07:20:34;;;;;;;17.20;8.47;;;;;;;24.29;61.69;99511.78;1750387;82;20151;-68
2021/08/24 07:23:02;;;;;;;14.10;9.05;;;;;;;24.16;62.36;99509.64;1685070;83;20921;-68
2021/08/24 07:25:31;;;;;;;14.83;8.33;;;;;;;24.37;62.57;99511.41;1779005;80;20964;-68
2021/08/24 07:27:58;;;;;;;9.53;7.00;;;;;;;24.49;57.76;99516.09;1778885;80;21107;-68
2021/08/24 07:30:24;;;;;;;16.73;7.80;;;;;;;24.38;55.99;99509.70;1713820;82;21028;-67
2021/08/24 07:32:52;;;;;;;19.27;7.78;;;;;;;24.25;58.93;99507.33;1778857;79;21423;-68
2021/08/24 07:35:19;;;;;;;14.45;9.35;;;;;;;24.27;58.80;99509.16;1746905;80;20956;-68
2021/08/24 07:37:45;;;;;;;17.60;10.35;;;;;;;24.33;59.17;99509.16;1744662;81;20945;-68
2021/08/24 07:40:13;;;;;;;15.28;8.08;;;;;;;24.26;58.87;99505.63;1714856;83;21135;-68
2021/08/24 07:42:40;;;;;;;;;;;;;;;24.43;56.09;99496.91;1781954;80;21435;-67
2021/08/24 07:45:07;;;;;;;10.78;6.92;;;;;;;24.57;57.58;99498.69;1779166;80;20099;-68
2021/08/24 07:47:35;;;;;;;10.95;7.37;;;;;;;24.55;55.68;99502.38;1779063;80;21379;-67
2021/08/24 07:50:01;;;;;;;10.95;6.83;;;;;;;24.56;55.59;99503.96;1782290;79;21063;-66
2021/08/24 07:52:34;;;;;;;16.02;7.85;;;;;;;24.31;55.15;99494.41;1723904;82;21089;-67
2021/08/24 07:55:01;;;;;;;11.65;6.90;;;;;;;24.06;55.57;99495.62;1721120;81;21011;-68
2021/08/24 07:57:28;;;;;;;12.50;6.37;;;;;;;24.22;55.81;99489.63;1711975;83;20929;-67
2021/08/24 07:59:54;;;;;;;13.58;7.58;;;;;;;24.70;53.05;99485.73;1717447;82;21432;-67
2021/08/24 08:02:21;;;;;;;11.63;7.00;;;;;;;24.97;52.12;99489.59;1718416;83;21040;-67
2021/08/24 08:04:48;;;;;;;13.58;6.75;;;;;;;25.37;51.50;99486.72;1718142;83;22010;-67
2021/08/24 08:07:17;;;;;;;13.48;6.83;;;;;;;25.47;52.95;99488.14;1719658;83;20904;-67
2021/08/24 08:09:46;;;;;;;12.75;6.33;;;;;;;25.85;50.99;99482.56;1731113;81;20874;-67
2021/08/24 08:16:29;;;;;;;9.85;6.67;;;;;;;25.99;46.84;99468.35;1650860;85;21026;-68
2021/08/24 08:19:18;;;;;;;9.28;5.78;;;;;;;25.98;46.24;99476.39;1643890;85;21897;-67
2021/08/24 08:22:58;;;;;;;9.23;6.70;;;;;;;26.06;45.89;99472.64;1553903;92;21515;-68
2021/08/24 08:26:31;;;;;;;12.20;6.00;;;;;;;26.09;46.05;99467.23;1552365;92;21152;-68
2021/08/24 08:30:06;;;;;;;9.13;5.30;;;;;;;26.37;46.51;99467.60;1457407;96;21171;-68
2021/08/24 08:32:47;;;;;;;9.55;4.65;;;;;;;26.49;44.32;99468.04;1387478;103;21183;-67
2021/08/24 08:35:18;;;;;;;14.13;6.45;;;;;;;26.52;43.55;99468.69;1377654;103;21279;-67
2021/08/24 08:37:47;;;;;;;10.18;6.95;;;;;;;26.85;42.55;99448.09;1395105;101;21216;-66
2021/08/24 08:40:14;;;;;;;9.15;5.78;;;;;;;27.09;42.31;99464.26;1443630;97;21059;-66
2021/08/24 08:42:58;;;;;;;13.70;5.83;;;;;;;26.73;42.45;99460.09;1452153;97;21079;-66
2021/08/24 08:45:47;;;;;;;17.27;7.65;;;;;;;26.77;42.49;99450.50;1452073;98;21091;-66
2021/08/24 08:48:38;;;;;;;10.85;6.83;;;;;;;26.63;43.37;99455.15;1442383;99;21201;-64
2021/08/24 08:51:16;;;;;;;12.82;5.97;;;;;;;26.61;42.54;99453.36;1449631;97;21428;-64
2021/08/24 08:54:18;;;;;;;8.10;5.70;;;;;;;26.22;43.23;99450.00;1482228;95;21081;-62
2021/08/24 08:56:59;;;;;;;5.92;4.72;;;;;;;26.03;42.64;99432.91;1500258;93;21523;-64
2021/08/24 08:59:50;;;;;;;7.05;4.90;;;;;;;25.61;43.26;99436.27;1466447;96;21136;-64
2021/08/24 09:02:48;;;;;;;9.60;4.60;;;;;;;25.66;44.15;99443.45;1543920;86;21153;-63
2021/08/24 09:05:16;;;;;;;10.95;5.80;;;;;;;25.47;44.89;99442.80;1681432;85;20949;-66
2021/08/24 09:07:52;;;;;;;9.50;4.95;;;;;;;25.30;46.06;99444.55;1777917;80;20942;-65
2021/08/24 09:10:36;;;;;;;9.20;5.20;;;;;;;25.02;45.17;99439.33;1780794;79;21494;-64
2021/08/24 09:13:40;;;;;;;8.75;5.10;;;;;;;24.98;46.21;99446.67;1774968;79;20817;-64
2021/08/24 09:16:21;;;;;;;9.80;5.37;;;;;;;24.90;46.33;99439.41;1744437;82;21052;-65
2021/08/24 09:19:02;;;;;;;9.10;4.05;;;;;;;24.82;45.10;99440.39;1713919;81;20869;-64
2021/08/24 09:21:45;;;;;;;9.58;5.60;;;;;;;24.67;45.02;99442.51;1728293;83;20924;-64
2021/08/24 09:24:25;;;;;;;9.95;4.85;;;;;;;24.72;45.30;99435.39;1714918;83;21455;-64
2021/08/24 09:27:04;;;;;;;8.23;5.05;;;;;;;24.72;45.44;99426.60;1728523;83;20967;-63
2021/08/24 09:29:34;;;;;;;11.75;5.47;;;;;;;24.69;44.80;99436.89;1663228;86;21137;-62
2021/08/24 09:32:04;;;;;;;8.15;4.30;;;;;;;24.59;44.31;99434.66;1663186;86;20932;-65
2021/08/24 09:34:38;;;;;;;23.22;8.98;;;;;;;24.53;45.07;99439.61;1663496;85;21012;-64
2021/08/24 09:37:07;;;;;;;25.17;11.48;;;;;;;24.51;45.76;99441.90;1663287;86;20984;-63
2021/08/24 09:39:54;;;;;;;18.42;10.13;;;;;;;24.67;46.12;99443.33;1662420;84;20918;-64
2021/08/24 09:42:37;;;;;;;17.47;9.13;;;;;;;24.72;46.04;99447.73;1654199;85;21158;-64
2021/08/24 09:45:27;;;;;;;59.10;22.32;;;;;;;24.72;45.72;99434.84;1662947;86;21047;-65
2021/08/24 09:48:03;;;;;;;27.60;12.07;;;;;;;24.74;46.31;99438.03;1663085;86;21501;-63
2021/08/24 09:50:38;;;;;;;23.27;6.30;;;;;;;24.69;45.57;99423.17;1662499;86;21077;-63
2021/08/24 09:53:06;;;;;;;12.33;6.67;;;;;;;24.76;45.58;99421.20;1639751;86;21015;-65
2021/08/24 09:55:37;;;;;;;13.80;5.40;;;;;;;24.91;46.27;99425.90;1662849;85;21126;-65
2021/08/24 09:58:06;;;;;;;12.05;4.85;;;;;;;25.08;46.76;99428.09;1662596;84;21218;-65
2021/08/24 10:00:40;;;;;;;13.08;6.53;;;;;;;24.94;45.88;99435.38;1662389;85;21010;-65
2021/08/24 10:03:22;;;;;;;11.40;5.40;;;;;;;24.76;45.97;99428.05;1662227;86;20961;-65
2021/08/24 10:05:49;;;;;;;14.98;7.50;;;;;;;24.68;45.09;99425.70;1611672;89;21546;-65
2021/08/24 10:08:34;;;;;;;20.57;9.20;;;;;;;24.55;45.81;99418.11;1604712;89;21119;-64
2021/08/24 10:11:14;;;;;;;19.77;8.70;;;;;;;24.59;46.19;99431.34;1606217;88;21008;-65
2021/08/24 10:13:43;;;;;;;13.18;6.33;;;;;;;24.57;46.05;99434.20;1608595;87;21012;-65
2021/08/24 10:16:29;;;;;;;21.95;13.00;;;;;;;24.50;46.36;99444.44;1628697;88;21447;-65
2021/08/24 10:19:25;;;;;;;8.58;5.30;;;;;;;24.24;45.92;99436.61;1628410;88;21070;-66
2021/08/24 10:21:57;;;;;;;15.10;9.35;;;;;;;23.88;45.18;99425.95;1627972;88;21539;-67
2021/08/24 10:24:39;;;;;;;16.50;9.20;;;;;;;23.70;47.05;99424.60;1605891;88;21141;-66
2021/08/24 10:27:10;;;;;;;19.30;10.28;;;;;;;23.58;48.48;99435.58;1585278;89;20940;-67
2021/08/24 10:29:39;;;;;;;16.30;9.63;;;;;;;23.46;49.27;99437.16;1611768;88;20964;-67
2021/08/24 10:32:10;;;;;;;16.05;7.55;;;;;;;23.32;49.60;99439.44;1606817;89;20983;-65
2021/08/24 10:34:45;;;;;;;15.25;7.83;;;;;;;23.04;51.41;99432.47;1606575;88;21154;-68
2021/08/24 10:37:29;;;;;;;15.10;7.83;;;;;;;22.97;56.21;99444.52;1606546;88;21015;-67
2021/08/24 10:40:13;;;;;;;24.87;9.35;;;;;;;22.62;62.00;99437.47;1606321;88;20944;-65
2021/08/24 10:43:01;;;;;;;17.48;8.95;;;;;;;22.29;61.19;99438.02;1636768;85;20936;-67
2021/08/24 10:45:34;;;;;;;15.83;7.97;;;;;;;22.18;67.66;99435.66;1687291;84;20925;-67
2021/08/24 10:48:05;;;;;;;24.60;13.18;;;;;;;22.11;64.34;99432.66;1686851;84;21125;-66
2021/08/24 10:50:54;;;;;;;28.23;15.70;;;;;;;22.07;67.39;99433.66;1686585;85;20976;-66
2021/08/24 10:53:49;;;;;;;29.57;17.98;;;;;;;21.95;69.37;99431.64;1687070;84;21363;-66
2021/08/24 10:56:39;;;;;;;38.95;20.17;;;;;;;21.75;74.56;99423.67;1687180;85;21061;-66
2021/08/24 10:59:29;;;;;;;23.38;12.28;;;;;;;21.75;74.56;99423.67;1695334;83;20938;-65
2021/08/24 11:02:03;;;;;;;36.17;19.82;;;;;;;21.71;69.84;99440.51;1701085;84;21120;-67
2021/08/24 11:05:11;;;;;;;32.53;19.48;;;;;;;21.61;71.70;99452.61;1722286;81;20956;-66
2021/08/24 11:08:07;;;;;;;12.82;7.87;;;;;;;21.43;76.70;99472.36;1741193;82;20853;-67
2021/08/24 11:11:13;;;;;;;14.38;8.58;;;;;;;20.64;97.26;99481.29;1740884;82;20898;-66
2021/08/24 11:13:58;;;;;;;13.13;7.63;;;;;;;19.92;100.00;99503.11;1741416;82;20865;-67
2021/08/24 11:17:13;;;;;;;12.43;7.90;;;;;;;19.38;100.00;99507.87;1741202;82;21131;-68
2021/08/24 11:20:07;;;;;;;18.80;9.23;;;;;;;18.94;100.00;99532.10;1741016;82;21379;-67
2021/08/24 11:23:05;;;;;;;13.30;9.23;;;;;;;18.37;100.00;99523.08;1741004;82;21274;-66
2021/08/24 11:25:48;;;;;;;21.65;9.65;;;;;;;17.91;100.00;99514.55;1741218;82;20916;-66
2021/08/24 11:28:57;;;;;;;14.65;8.30;;;;;;;17.44;100.00;99528.75;1740108;82;20941;-65
2021/08/24 11:31:34;;;;;;;26.17;9.58;;;;;;;17.18;100.00;99527.59;1747262;81;21773;-66
2021/08/24 11:34:21;;;;;;;14.20;8.70;;;;;;;16.92;100.00;99506.33;1745859;82;20952;-66
2021/08/24 11:37:07;;;;;;;29.42;18.52;;;;;;;16.77;100.00;99498.42;1743071;81;21371;-65
2021/08/24 11:39:54;;;;;;;34.73;17.62;;;;;;;16.64;100.00;99508.91;1720037;82;20909;-65
2021/08/24 11:42:43;;;;;;;56.25;33.80;;;;;;;16.57;100.00;99498.20;1741008;82;20929;-64
2021/08/24 11:45:40;;;;;;;45.52;28.98;;;;;;;16.55;100.00;99486.84;1741213;82;21146;-65
2021/08/24 11:48:10;;;;;;;24.92;15.35;;;;;;;16.54;100.00;99464.38;1733779;81;21297;-64
2021/08/24 11:51:17;;;;;;;35.17;21.45;;;;;;;16.43;100.00;99456.14;1721989;82;20921;-63
2021/08/24 11:53:49;;;;;;;21.47;13.13;;;;;;;16.34;100.00;99474.98;1722076;82;20908;-62
2021/08/24 11:56:42;;;;;;;22.80;18.02;;;;;;;16.26;100.00;99472.91;1721904;83;21284;-61
2021/08/24 11:59:20;;;;;;;32.98;23.00;;;;;;;16.18;100.00;99473.02;1672388;85;21816;-64